Wetterdaten: Woche 16.08.21 - 22.08.21 (KW33)
Datum Zeit Temp. Aussen Temp. o. S. Temp +5cm Feuchte Auss Luftdruck Regen Sonnenschein Regendauer Solar Windben Empfang
16.08.2021 00:00 19,3 C 18,3 C 16,3 C 82 % 1010,7 hPa 0,0 l/m 0,00 h 0,00 h 0 W/m 8,0 km/h (2 Bft) 98,73 %
16.08.2021 01:00 18,7 C 17,8 C 16,0 C 83 % 1010,8 hPa 0,0 l/m 0,00 h 0,00 h 0 W/m 11,4 km/h (2 Bft) 98,86 %
16.08.2021 02:00 17,4 C 16,5 C 14,9 C 79 % 1010,8 hPa 0,0 l/m 0,00 h 0,00 h 0 W/m 14,9 km/h (3 Bft) 94,95 %
16.08.2021 03:00 16,5 C 15,7 C 14,0 C 81 % 1010,7 hPa 0,0 l/m 0,00 h 0,00 h 0 W/m 11,6 km/h (2 Bft) 99,57 %
16.08.2021 04:00 16,2 C 15,6 C 13,9 C 83 % 1010,5 hPa 0,0 l/m 0,00 h 0,00 h 0 W/m 11,8 km/h (2 Bft) 97,64 %
16.08.2021 05:00 16,0 C 15,6 C 13,9 C 84 % 1010,3 hPa 0,0 l/m 0,00 h 0,00 h 0 W/m 14,6 km/h (3 Bft) 96,48 %
16.08.2021 06:00 16,0 C 15,6 C 13,9 C 85 % 1010,3 hPa 0,0 l/m 0,00 h 0,00 h 7 W/m 15,3 km/h (3 Bft) 96,48 %
16.08.2021 07:00 16,2 C 15,6 C 13,9 C 86 % 1010,5 hPa 0,0 l/m 0,00 h 0,00 h 19 W/m 16,5 km/h (3 Bft) 98,01 %
16.08.2021 08:00 16,7 C 16,6 C 14,9 C 86 % 1010,4 hPa 0,0 l/m 0,23 h 0,00 h 151 W/m 19,6 km/h (3 Bft) 95,38 %
16.08.2021 09:00 17,5 C 17,4 C 15,6 C 84 % 1010,5 hPa 0,0 l/m 0,17 h 0,00 h 145 W/m 21,7 km/h (4 Bft) 99,29 %
16.08.2021 10:00 18,1 C 18,1 C 16,5 C 84 % 1010,6 hPa 0,0 l/m 0,10 h 0,00 h 225 W/m 18,1 km/h (3 Bft) 96,58 %
16.08.2021 11:00 18,7 C 18,5 C 16,7 C 82 % 1010,6 hPa 0,0 l/m 0,00 h 0,00 h 207 W/m 22,2 km/h (4 Bft) 92,81 %
16.08.2021 12:00 16,9 C 16,1 C 14,2 C 91 % 1011,3 hPa 2,6 l/m 0,03 h 0,57 h 202 W/m 17,9 km/h (3 Bft) 96,75 %
16.08.2021 13:00 16,2 C 15,4 C 13,7 C 94 % 1011,8 hPa 0,4 l/m 0,00 h 0,37 h 66 W/m 14,4 km/h (3 Bft) 95,20 %
16.08.2021 14:00 15,7 C 15,2 C 13,3 C 91 % 1012,3 hPa 0,2 l/m 0,00 h 0,20 h 132 W/m 15,6 km/h (3 Bft) 90,90 %
16.08.2021 15:00 16,4 C 16,0 C 13,5 C 87 % 1012,8 hPa 0,0 l/m 0,00 h 0,00 h 155 W/m 16,7 km/h (3 Bft) 99,50 %
16.08.2021 16:00 15,0 C 14,6 C 12,7 C 90 % 1014,0 hPa 0,2 l/m 0,00 h 0,13 h 150 W/m 21,7 km/h (4 Bft) 95,68 %
16.08.2021 17:00 14,4 C 13,9 C 12,2 C 89 % 1014,6 hPa 0,6 l/m 0,00 h 0,73 h 66 W/m 13,3 km/h (3 Bft) 93,02 %
16.08.2021 18:00 14,2 C 13,4 C 12,3 C 93 % 1015,1 hPa 0,0 l/m 0,03 h 0,23 h 77 W/m 14,0 km/h (3 Bft) 96,79 %
16.08.2021 19:00 14,6 C 14,4 C 12,5 C 90 % 1015,3 hPa 0,0 l/m 0,23 h 0,00 h 85 W/m 14,2 km/h (3 Bft) 96,18 %
16.08.2021 20:00 14,4 C 13,9 C 12,7 C 90 % 1015,8 hPa 0,0 l/m 0,07 h 0,00 h 23 W/m 11,6 km/h (2 Bft) 98,12 %
16.08.2021 21:00 13,9 C 13,0 C 12,3 C 89 % 1016,8 hPa 0,0 l/m 0,00 h 0,00 h 0 W/m 9,3 km/h (2 Bft) 98,36 %
16.08.2021 22:00 13,3 C 12,6 C 11,8 C 87 % 1017,5 hPa 0,0 l/m 0,00 h 0,00 h 0 W/m 8,8 km/h (2 Bft) 96,45 %
16.08.2021 23:00 12,7 C 12,1 C 11,2 C 84 % 1017,9 hPa 0,0 l/m 0,00 h 0,00 h 0 W/m 8,9 km/h (2 Bft) 97,64 %
17.08.2021 00:00 12,7 C 12,1 C 11,1 C 85 % 1018,1 hPa 0,0 l/m 0,00 h 0,00 h 0 W/m 12,3 km/h (3 Bft) 98,46 %
17.08.2021 01:00 12,1 C 11,3 C 10,6 C 89 % 1018,2 hPa 0,0 l/m 0,00 h 0,00 h 0 W/m 9,3 km/h (2 Bft) 97,36 %
17.08.2021 02:00 11,8 C 11,1 C 10,6 C 92 % 1018,0 hPa 0,0 l/m 0,00 h 0,00 h 0 W/m 8,4 km/h (2 Bft) 98,08 %
17.08.2021 03:00 11,8 C 11,1 C 10,6 C 94 % 1018,0 hPa 0,0 l/m 0,00 h 0,00 h 0 W/m 7,1 km/h (2 Bft) 97,22 %
17.08.2021 04:00 11,7 C 11,1 C 10,6 C 95 % 1018,1 hPa 0,0 l/m 0,00 h 0,00 h 0 W/m 5,7 km/h (1 Bft) 98,50 %
17.08.2021 05:00 11,4 C 10,6 C 10,3 C 95 % 1018,1 hPa 0,2 l/m 0,00 h 0,00 h 0 W/m 3,6 km/h (1 Bft) 96,23 %
17.08.2021 06:00 11,6 C 11,1 C 10,8 C 96 % 1018,2 hPa 0,0 l/m 0,00 h 0,00 h 14 W/m 6,4 km/h (2 Bft) 96,43 %
17.08.2021 07:00 12,3 C 11,9 C 11,6 C 96 % 1018,6 hPa 0,0 l/m 0,03 h 0,00 h 51 W/m 8,8 km/h (2 Bft) 98,94 %
17.08.2021 08:00 13,3 C 13,5 C 13,0 C 96 % 1018,6 hPa 0,0 l/m 0,25 h 0,00 h 140 W/m 10,6 km/h (2 Bft) 92,05 %
17.08.2021 09:00 14,4 C 14,7 C 14,1 C 94 % 1018,6 hPa 0,0 l/m 0,10 h 0,00 h 185 W/m 15,3 km/h (3 Bft) 99,50 %
17.08.2021 10:00 15,5 C 15,9 C 15,1 C 90 % 1018,6 hPa 0,0 l/m 0,37 h 0,00 h 278 W/m 17,1 km/h (3 Bft) 97,58 %
17.08.2021 11:00 16,5 C 16,8 C 15,8 C 83 % 1018,6 hPa 0,0 l/m 0,20 h 0,00 h 304 W/m 19,5 km/h (3 Bft) 95,94 %
17.08.2021 12:00 16,6 C 16,5 C 15,2 C 81 % 1018,5 hPa 0,0 l/m 0,00 h 0,00 h 196 W/m 17,0 km/h (3 Bft) 98,82 %
17.08.2021 13:00 16,2 C 15,6 C 14,4 C 81 % 1018,3 hPa 0,0 l/m 0,00 h 0,20 h 91 W/m 14,1 km/h (3 Bft) 97,15 %
17.08.2021 14:00 15,6 C 15,1 C 13,4 C 84 % 1018,3 hPa 0,0 l/m 0,00 h 0,57 h 113 W/m 12,6 km/h (3 Bft) 96,64 %
17.08.2021 15:00 15,5 C 15,1 C 13,0 C 88 % 1018,1 hPa 0,8 l/m 0,00 h 1,00 h 180 W/m 12,1 km/h (2 Bft) 97,65 %
17.08.2021 16:00 14,6 C 13,8 C 12,3 C 92 % 1018,1 hPa 0,4 l/m 0,00 h 0,57 h 120 W/m 13,9 km/h (3 Bft) 96,94 %
17.08.2021 17:00 14,2 C 13,4 C 12,3 C 94 % 1017,8 hPa 0,4 l/m 0,00 h 1,00 h 68 W/m 14,9 km/h (3 Bft) 97,86 %
17.08.2021 18:00 13,9 C 13,3 C 12,3 C 95 % 1017,2 hPa 0,0 l/m 0,00 h 0,07 h 37 W/m 13,4 km/h (3 Bft) 96,43 %
17.08.2021 19:00 14,0 C 13,3 C 12,5 C 96 % 1016,7 hPa 0,2 l/m 0,00 h 0,20 h 22 W/m 14,0 km/h (3 Bft) 97,58 %
17.08.2021 20:00 14,0 C 13,4 C 12,8 C 96 % 1016,4 hPa 0,0 l/m 0,00 h 0,03 h 6 W/m 11,1 km/h (2 Bft) 96,37 %
17.08.2021 21:00 14,2 C 13,9 C 12,9 C 96 % 1016,5 hPa 0,0 l/m 0,00 h 0,07 h 0 W/m 9,4 km/h (2 Bft) 99,50 %
17.08.2021 22:00 14,4 C 13,9 C 13,4 C 97 % 1016,5 hPa 0,0 l/m 0,00 h 0,00 h 0 W/m 7,7 km/h (2 Bft) 96,44 %
17.08.2021 23:00 14,5 C 13,9 C 13,4 C 97 % 1016,3 hPa 0,0 l/m 0,00 h 0,00 h 0 W/m 8,0 km/h (2 Bft) 98,08 %
18.08.2021 00:00 14,6 C 13,9 C 13,4 C 97 % 1016,4 hPa 0,2 l/m 0,00 h 0,20 h 0 W/m 7,1 km/h (2 Bft) 97,90 %
18.08.2021 01:00 14,6 C 13,9 C 13,6 C 97 % 1016,3 hPa 0,6 l/m 0,00 h 0,00 h 0 W/m 6,2 km/h (2 Bft) 97,08 %
18.08.2021 02:00 14,6 C 13,9 C 13,9 C 98 % 1016,2 hPa 0,2 l/m 0,00 h 0,00 h 0 W/m 7,7 km/h (2 Bft) 96,80 %
18.08.2021 03:00 14,7 C 13,9 C 13,9 C 98 % 1016,2 hPa 0,0 l/m 0,00 h 0,00 h 0 W/m 4,9 km/h (1 Bft) 99,08 %
18.08.2021 04:00 14,7 C 13,9 C 13,9 C 98 % 1016,3 hPa 0,0 l/m 0,00 h 0,00 h 0 W/m 4,6 km/h (1 Bft) 95,91 %
18.08.2021 05:00 14,8 C 14,1 C 14,2 C 98 % 1016,2 hPa 0,0 l/m 0,00 h 0,00 h 0 W/m 4,4 km/h (1 Bft) 98,38 %
18.08.2021 06:00 14,9 C 14,4 C 14,5 C 98 % 1016,2 hPa 0,0 l/m 0,00 h 0,00 h 9 W/m 6,2 km/h (2 Bft) 97,93 %
18.08.2021 07:00 15,1 C 14,6 C 14,7 C 98 % 1016,2 hPa 0,0 l/m 0,00 h 0,00 h 34 W/m 6,6 km/h (2 Bft) 94,38 %
18.08.2021 08:00 15,6 C 15,4 C 15,2 C 98 % 1016,3 hPa 0,0 l/m 0,00 h 0,00 h 67 W/m 7,1 km/h (2 Bft) 97,68 %
18.08.2021 09:00 16,1 C 16,0 C 15,6 C 98 % 1016,5 hPa 0,0 l/m 0,00 h 0,00 h 111 W/m 7,3 km/h (2 Bft) 93,95 %
18.08.2021 10:00 16,6 C 16,4 C 15,7 C 96 % 1016,6 hPa 0,0 l/m 0,00 h 0,00 h 126 W/m 8,8 km/h (2 Bft) 96,16 %
18.08.2021 11:00 17,0 C 17,1 C 16,0 C 93 % 1016,7 hPa 0,0 l/m 0,07 h 0,00 h 233 W/m 12,8 km/h (3 Bft) 98,87 %
18.08.2021 12:00 18,0 C 18,5 C 17,4 C 86 % 1016,5 hPa 0,0 l/m 0,27 h 0,00 h 310 W/m 12,2 km/h (2 Bft) 96,76 %
18.08.2021 13:00 18,5 C 18,7 C 17,7 C 82 % 1016,4 hPa 0,0 l/m 0,00 h 0,00 h 270 W/m 8,6 km/h (2 Bft) 98,23 %
18.08.2021 14:00 18,7 C 19,1 C 18,0 C 84 % 1016,2 hPa 0,0 l/m 0,13 h 0,00 h 311 W/m 10,5 km/h (2 Bft) 95,59 %
18.08.2021 15:00 19,1 C 19,1 C 17,8 C 85 % 1015,9 hPa 0,0 l/m 0,00 h 0,00 h 189 W/m 12,2 km/h (2 Bft) 98,08 %
18.08.2021 16:00 19,0 C 19,0 C 17,6 C 83 % 1015,6 hPa 0,0 l/m 0,00 h 0,00 h 180 W/m 13,4 km/h (3 Bft) 98,01 %
18.08.2021 17:00 19,0 C 18,6 C 17,3 C 83 % 1015,4 hPa 0,0 l/m 0,00 h 0,00 h 106 W/m 12,7 km/h (3 Bft) 94,22 %
18.08.2021 18:00 19,0 C 18,4 C 17,2 C 82 % 1015,0 hPa 0,0 l/m 0,00 h 0,00 h 72 W/m 10,1 km/h (2 Bft) 97,31 %
18.08.2021 19:00 19,0 C 18,5 C 17,0 C 80 % 1014,9 hPa 0,0 l/m 0,00 h 0,00 h 42 W/m 11,6 km/h (2 Bft) 99,33 %
18.08.2021 20:00 18,4 C 17,5 C 16,1 C 83 % 1014,7 hPa 0,0 l/m 0,00 h 0,00 h 12 W/m 8,6 km/h (2 Bft) 95,22 %
18.08.2021 21:00 17,8 C 17,0 C 15,6 C 86 % 1014,8 hPa 0,0 l/m 0,00 h 0,03 h 0 W/m 7,2 km/h (2 Bft) 99,37 %
18.08.2021 22:00 17,5 C 16,7 C 15,6 C 88 % 1014,6 hPa 0,0 l/m 0,00 h 0,00 h 0 W/m 7,4 km/h (2 Bft) 98,01 %
18.08.2021 23:00 17,4 C 16,7 C 15,6 C 89 % 1014,7 hPa 0,0 l/m 0,00 h 0,00 h 0 W/m 9,5 km/h (2 Bft) 96,45 %
19.08.2021 00:00 17,3 C 16,7 C 15,6 C 91 % 1014,5 hPa 0,0 l/m 0,00 h 0,00 h 0 W/m 10,5 km/h (2 Bft) 95,06 %
19.08.2021 01:00 17,3 C 16,7 C 15,6 C 92 % 1014,4 hPa 0,0 l/m 0,00 h 0,00 h 0 W/m 10,3 km/h (2 Bft) 97,30 %
19.08.2021 02:00 17,2 C 16,7 C 15,6 C 93 % 1014,1 hPa 0,0 l/m 0,00 h 0,00 h 0 W/m 9,3 km/h (2 Bft) 95,81 %
19.08.2021 03:00 17,3 C 16,7 C 15,7 C 92 % 1013,9 hPa 0,0 l/m 0,00 h 0,00 h 0 W/m 9,4 km/h (2 Bft) 99,50 %
19.08.2021 04:00 17,1 C 16,2 C 15,4 C 93 % 1013,8 hPa 0,2 l/m 0,00 h 0,17 h 0 W/m 8,0 km/h (2 Bft) 97,05 %
19.08.2021 05:00 16,7 C 15,6 C 15,0 C 95 % 1013,6 hPa 0,0 l/m 0,00 h 0,00 h 0 W/m 6,3 km/h (2 Bft) 97,37 %
19.08.2021 06:00 16,5 C 16,1 C 15,1 C 96 % 1013,6 hPa 0,0 l/m 0,00 h 0,00 h 4 W/m 5,9 km/h (2 Bft) 98,38 %
19.08.2021 07:00 16,5 C 16,1 C 15,6 C 95 % 1013,8 hPa 0,0 l/m 0,00 h 0,00 h 16 W/m 6,1 km/h (2 Bft) 97,30 %
19.08.2021 08:00 16,7 C 16,4 C 15,9 C 95 % 1014,1 hPa 0,0 l/m 0,00 h 0,00 h 56 W/m 7,9 km/h (2 Bft) 96,32 %
19.08.2021 09:00 17,1 C 16,7 C 16,1 C 93 % 1014,3 hPa 0,0 l/m 0,00 h 0,00 h 72 W/m 10,1 km/h (2 Bft) 99,07 %
19.08.2021 10:00 17,3 C 17,0 C 16,4 C 92 % 1014,5 hPa 0,0 l/m 0,00 h 0,00 h 100 W/m 12,0 km/h (2 Bft) 96,64 %
19.08.2021 11:00 17,9 C 18,0 C 17,2 C 88 % 1014,8 hPa 0,0 l/m 0,07 h 0,00 h 193 W/m 11,6 km/h (2 Bft) 97,15 %
19.08.2021 12:00 18,9 C 18,8 C 17,8 C 83 % 1014,8 hPa 0,0 l/m 0,03 h 0,00 h 213 W/m 12,4 km/h (3 Bft) 97,48 %
19.08.2021 13:00 18,7 C 18,7 C 17,5 C 83 % 1014,8 hPa 0,0 l/m 0,00 h 0,00 h 218 W/m 12,4 km/h (3 Bft) 98,21 %
19.08.2021 14:00 19,1 C 19,3 C 17,9 C 82 % 1014,9 hPa 0,0 l/m 0,33 h 0,00 h 285 W/m 11,5 km/h (2 Bft) 96,79 %
19.08.2021 15:00 20,6 C 20,9 C 19,1 C 76 % 1014,9 hPa 0,0 l/m 0,27 h 0,00 h 300 W/m 12,8 km/h (3 Bft) 96,72 %
19.08.2021 16:00 20,1 C 19,8 C 18,0 C 75 % 1014,6 hPa 0,0 l/m 0,03 h 0,00 h 154 W/m 11,9 km/h (2 Bft) 98,15 %
19.08.2021 17:00 20,7 C 22,6 C 18,7 C 72 % 1014,5 hPa 0,0 l/m 0,63 h 0,00 h 329 W/m 13,5 km/h (3 Bft) 98,79 %
19.08.2021 18:00 20,0 C 19,7 C 17,6 C 71 % 1014,7 hPa 0,0 l/m 0,27 h 0,00 h 132 W/m 14,4 km/h (3 Bft) 95,21 %
19.08.2021 19:00 19,3 C 18,7 C 16,7 C 74 % 1014,7 hPa 0,0 l/m 0,00 h 0,00 h 41 W/m 5,8 km/h (2 Bft) 99,50 %
19.08.2021 20:00 18,8 C 17,9 C 16,0 C 76 % 1014,7 hPa 0,0 l/m 0,00 h 0,00 h 8 W/m 4,2 km/h (1 Bft) 96,29 %
19.08.2021 21:00 18,3 C 17,3 C 15,6 C 79 % 1015,0 hPa 0,0 l/m 0,00 h 0,00 h 0 W/m 3,5 km/h (1 Bft) 97,08 %
19.08.2021 22:00 18,0 C 17,0 C 15,4 C 81 % 1015,2 hPa 0,0 l/m 0,00 h 0,00 h 0 W/m 3,7 km/h (1 Bft) 98,15 %
19.08.2021 23:00 17,5 C 16,3 C 14,7 C 83 % 1015,3 hPa 0,0 l/m 0,00 h 0,00 h 0 W/m 1,6 km/h (1 Bft) 97,23 %
20.08.2021 00:00 16,7 C 15,6 C 13,9 C 87 % 1015,3 hPa 0,0 l/m 0,00 h 0,00 h 0 W/m 3,6 km/h (1 Bft) 96,67 %
20.08.2021 01:00 16,3 C 15,5 C 14,3 C 90 % 1015,4 hPa 0,0 l/m 0,00 h 0,00 h 0 W/m 6,0 km/h (2 Bft) 99,58 %
20.08.2021 02:00 15,8 C 14,8 C 13,8 C 90 % 1015,4 hPa 0,0 l/m 0,00 h 0,00 h 0 W/m 5,6 km/h (1 Bft) 96,07 %
20.08.2021 03:00 15,5 C 14,7 C 13,7 C 92 % 1015,5 hPa 0,0 l/m 0,00 h 0,00 h 0 W/m 5,4 km/h (1 Bft) 97,79 %
20.08.2021 04:00 14,9 C 14,0 C 13,2 C 93 % 1015,7 hPa 0,0 l/m 0,00 h 0,00 h 0 W/m 3,5 km/h (1 Bft) 99,22 %
20.08.2021 05:00 14,3 C 13,6 C 12,9 C 93 % 1015,8 hPa 0,0 l/m 0,00 h 0,00 h 0 W/m 3,6 km/h (1 Bft) 94,35 %
20.08.2021 06:00 14,5 C 14,0 C 13,4 C 93 % 1016,0 hPa 0,0 l/m 0,00 h 0,00 h 8 W/m 7,0 km/h (2 Bft) 98,41 %
20.08.2021 07:00 15,1 C 14,9 C 14,1 C 93 % 1016,2 hPa 0,0 l/m 0,00 h 0,00 h 44 W/m 7,0 km/h (2 Bft) 98,15 %
20.08.2021 08:00 16,0 C 16,0 C 15,1 C 93 % 1016,5 hPa 0,0 l/m 0,00 h 0,00 h 87 W/m 6,7 km/h (2 Bft) 91,06 %
20.08.2021 09:00 17,4 C 18,3 C 16,7 C 91 % 1016,8 hPa 0,0 l/m 0,47 h 0,00 h 234 W/m 10,9 km/h (2 Bft) 97,01 %
20.08.2021 10:00 18,9 C 19,4 C 18,0 C 86 % 1016,9 hPa 0,0 l/m 0,40 h 0,03 h 263 W/m 12,6 km/h (3 Bft) 98,08 %
20.08.2021 11:00 18,5 C 18,3 C 16,3 C 91 % 1017,2 hPa 0,4 l/m 0,37 h 0,17 h 287 W/m 11,8 km/h (2 Bft) 96,08 %
20.08.2021 12:00 18,8 C 19,4 C 17,6 C 90 % 1017,4 hPa 0,0 l/m 0,33 h 0,00 h 397 W/m 12,3 km/h (3 Bft) 98,06 %
20.08.2021 13:00 21,1 C 22,4 C 19,8 C 82 % 1017,3 hPa 0,0 l/m 0,73 h 0,00 h 533 W/m 10,3 km/h (2 Bft) 97,43 %
20.08.2021 14:00 21,8 C 21,8 C 19,7 C 76 % 1017,3 hPa 0,0 l/m 0,00 h 0,00 h 264 W/m 7,5 km/h (2 Bft) 98,01 %
20.08.2021 15:00 21,8 C 22,0 C 19,7 C 75 % 1017,4 hPa 0,0 l/m 0,00 h 0,00 h 271 W/m 9,3 km/h (2 Bft) 88,88 %
20.08.2021 16:00 22,3 C 23,5 C 19,9 C 74 % 1017,3 hPa 0,0 l/m 0,60 h 0,00 h 348 W/m 8,9 km/h (2 Bft) 94,95 %
20.08.2021 17:00 22,7 C 23,6 C 19,9 C 71 % 1017,4 hPa 0,0 l/m 0,33 h 0,00 h 273 W/m 8,0 km/h (2 Bft) 99,64 %
20.08.2021 18:00 22,0 C 21,8 C 19,0 C 75 % 1017,5 hPa 0,0 l/m 0,20 h 0,00 h 139 W/m 7,1 km/h (2 Bft) 95,31 %
20.08.2021 19:00 21,2 C 20,5 C 18,3 C 78 % 1017,6 hPa 0,0 l/m 0,00 h 0,00 h 61 W/m 3,8 km/h (1 Bft) 98,37 %
20.08.2021 20:00 20,6 C 19,2 C 17,2 C 81 % 1017,7 hPa 0,0 l/m 0,00 h 0,00 h 18 W/m 0,3 km/h (0 Bft) 98,57 %
20.08.2021 21:00 19,1 C 17,0 C 15,4 C 85 % 1018,3 hPa 0,0 l/m 0,00 h 0,00 h 0 W/m 0,0 km/h (0 Bft) 96,01 %
20.08.2021 22:00 17,5 C 15,7 C 14,6 C 90 % 1018,6 hPa 0,0 l/m 0,00 h 0,00 h 0 W/m 0,0 km/h (0 Bft) 98,20 %
20.08.2021 23:00 16,4 C 14,9 C 14,0 C 92 % 1018,8 hPa 0,0 l/m 0,00 h 0,00 h 0 W/m 0,0 km/h (0 Bft) 98,51 %
21.08.2021 00:00 15,7 C 14,3 C 13,6 C 93 % 1018,8 hPa 0,0 l/m 0,00 h 0,00 h 0 W/m 0,0 km/h (0 Bft) 95,16 %
21.08.2021 01:00 15,1 C 13,9 C 13,4 C 94 % 1018,8 hPa 0,0 l/m 0,00 h 0,00 h 0 W/m 0,0 km/h (0 Bft) 97,66 %
21.08.2021 02:00 14,5 C 13,3 C 13,0 C 95 % 1018,8 hPa 0,0 l/m 0,00 h 0,00 h 0 W/m 0,0 km/h (0 Bft) 98,27 %
21.08.2021 03:00 14,2 C 13,0 C 12,8 C 95 % 1018,7 hPa 0,0 l/m 0,00 h 0,00 h 0 W/m 0,0 km/h (0 Bft) 97,95 %
21.08.2021 04:00 13,7 C 12,8 C 12,4 C 95 % 1018,5 hPa 0,0 l/m 0,00 h 0,00 h 0 W/m 0,0 km/h (0 Bft) 96,30 %
21.08.2021 05:00 13,9 C 13,4 C 13,0 C 96 % 1018,4 hPa 0,0 l/m 0,00 h 0,00 h 0 W/m 0,4 km/h (0 Bft) 98,36 %
21.08.2021 06:00 14,6 C 14,1 C 13,8 C 97 % 1018,5 hPa 0,0 l/m 0,00 h 0,00 h 11 W/m 4,9 km/h (1 Bft) 98,42 %
21.08.2021 07:00 15,0 C 14,5 C 14,4 C 97 % 1018,5 hPa 0,0 l/m 0,00 h 0,00 h 46 W/m 4,7 km/h (1 Bft) 95,53 %
21.08.2021 08:00 15,4 C 15,2 C 15,0 C 97 % 1018,7 hPa 0,0 l/m 0,27 h 0,00 h 109 W/m 7,1 km/h (2 Bft) 98,80 %
21.08.2021 09:00 17,4 C 20,6 C 17,2 C 96 % 1018,6 hPa 0,0 l/m 0,87 h 0,00 h 341 W/m 8,8 km/h (2 Bft) 98,06 %
21.08.2021 10:00 20,5 C 21,6 C 19,2 C 85 % 1018,7 hPa 0,0 l/m 0,37 h 0,00 h 271 W/m 9,9 km/h (2 Bft) 96,93 %
21.08.2021 11:00 22,1 C 23,2 C 20,6 C 78 % 1018,6 hPa 0,0 l/m 1,00 h 0,00 h 623 W/m 9,7 km/h (2 Bft) 91,17 %
21.08.2021 12:00 24,3 C 26,6 C 23,3 C 68 % 1018,3 hPa 0,0 l/m 1,00 h 0,00 h 727 W/m 11,3 km/h (2 Bft) 93,52 %
21.08.2021 13:00 25,6 C 26,8 C 22,3 C 62 % 1017,9 hPa 0,0 l/m 0,93 h 0,00 h 754 W/m 11,5 km/h (2 Bft) 97,58 %
21.08.2021 14:00 26,2 C 28,0 C 22,7 C 60 % 1017,4 hPa 0,0 l/m 1,00 h 0,00 h 679 W/m 11,9 km/h (2 Bft) 97,35 %
21.08.2021 15:00 26,4 C 28,2 C 22,8 C 60 % 1017,1 hPa 0,0 l/m 0,90 h 0,00 h 559 W/m 10,3 km/h (2 Bft) 97,30 %
21.08.2021 16:00 26,7 C 28,0 C 22,7 C 58 % 1016,7 hPa 0,0 l/m 1,00 h 0,00 h 402 W/m 8,2 km/h (2 Bft) 98,65 %
21.08.2021 17:00 26,4 C 27,1 C 22,4 C 59 % 1016,2 hPa 0,0 l/m 0,90 h 0,00 h 282 W/m 5,6 km/h (1 Bft) 96,08 %
21.08.2021 18:00 26,1 C 26,4 C 21,9 C 61 % 1015,7 hPa 0,0 l/m 0,40 h 0,00 h 168 W/m 4,0 km/h (1 Bft) 98,64 %
21.08.2021 19:00 25,1 C 23,9 C 20,4 C 67 % 1015,6 hPa 0,0 l/m 0,00 h 0,00 h 70 W/m 1,8 km/h (1 Bft) 98,37 %
21.08.2021 20:00 24,2 C 22,2 C 19,1 C 72 % 1015,7 hPa 0,0 l/m 0,00 h 0,00 h 16 W/m 0,1 km/h (0 Bft) 95,23 %
21.08.2021 21:00 22,8 C 20,7 C 17,9 C 75 % 1015,1 hPa 0,0 l/m 0,00 h 0,00 h 0 W/m 0,0 km/h (0 Bft) 98,86 %
21.08.2021 22:00 21,4 C 20,0 C 17,4 C 81 % 1014,8 hPa 0,0 l/m 0,00 h 0,13 h 0 W/m 0,0 km/h (0 Bft) 98,22 %
21.08.2021 23:00 20,8 C 19,2 C 16,4 C 87 % 1014,9 hPa 0,8 l/m 0,00 h 1,00 h 0 W/m 0,0 km/h (0 Bft) 96,30 %
22.08.2021 00:00 19,8 C 18,4 C 16,0 C 90 % 1014,8 hPa 0,6 l/m 0,00 h 1,00 h 0 W/m 5,2 km/h (1 Bft) 98,49 %
22.08.2021 01:00 18,6 C 17,1 C 15,5 C 93 % 1015,0 hPa 2,2 l/m 0,00 h 0,87 h 0 W/m 11,8 km/h (2 Bft) 96,94 %
22.08.2021 02:00 17,5 C 16,3 C 14,9 C 95 % 1014,5 hPa 0,0 l/m 0,00 h 0,00 h 0 W/m 4,2 km/h (1 Bft) 96,65 %
22.08.2021 03:00 16,8 C 15,6 C 14,5 C 95 % 1014,6 hPa 0,0 l/m 0,00 h 0,00 h 0 W/m 0,6 km/h (0 Bft) 99,50 %
22.08.2021 04:00 16,8 C 16,0 C 14,9 C 96 % 1014,7 hPa 0,0 l/m 0,00 h 0,00 h 0 W/m 6,2 km/h (2 Bft) 95,80 %
22.08.2021 05:00 17,4 C 16,7 C 15,6 C 97 % 1014,6 hPa 0,0 l/m 0,00 h 0,00 h 0 W/m 7,7 km/h (2 Bft) 98,44 %
22.08.2021 06:00 17,3 C 16,7 C 15,6 C 97 % 1014,8 hPa 0,0 l/m 0,00 h 0,00 h 6 W/m 8,4 km/h (2 Bft) 98,38 %
22.08.2021 07:00 17,1 C 16,7 C 15,6 C 97 % 1015,1 hPa 0,0 l/m 0,00 h 0,00 h 24 W/m 8,1 km/h (2 Bft) 96,01 %
22.08.2021 08:00 17,2 C 17,0 C 15,6 C 97 % 1015,4 hPa 0,0 l/m 0,17 h 0,00 h 105 W/m 10,2 km/h (2 Bft) 97,22 %
22.08.2021 09:00 18,2 C 19,5 C 16,2 C 93 % 1015,6 hPa 0,0 l/m 0,50 h 0,00 h 224 W/m 11,7 km/h (2 Bft) 98,57 %
22.08.2021 10:00 19,3 C 19,9 C 17,8 C 89 % 1015,7 hPa 0,0 l/m 0,30 h 0,00 h 272 W/m 11,8 km/h (2 Bft) 94,55 %
22.08.2021 11:00 19,9 C 20,0 C 18,8 C 83 % 1015,8 hPa 0,0 l/m 0,27 h 0,00 h 299 W/m 15,7 km/h (3 Bft) 99,65 %
22.08.2021 12:00 21,3 C 22,6 C 21,0 C 74 % 1015,7 hPa 0,0 l/m 0,83 h 0,00 h 597 W/m 21,7 km/h (4 Bft) 97,71 %
22.08.2021 13:00 21,9 C 23,0 C 20,2 C 71 % 1015,5 hPa 0,0 l/m 0,90 h 0,00 h 651 W/m 17,5 km/h (3 Bft) 97,58 %
22.08.2021 14:00 22,9 C 25,0 C 20,4 C 71 % 1015,4 hPa 0,0 l/m 0,93 h 0,00 h 676 W/m 18,5 km/h (3 Bft) 97,01 %
22.08.2021 15:00 22,6 C 24,1 C 19,9 C 72 % 1015,5 hPa 0,0 l/m 0,43 h 0,00 h 464 W/m 16,0 km/h (3 Bft) 97,51 %
22.08.2021 16:00 21,7 C 24,1 C 19,2 C 75 % 1015,6 hPa 0,0 l/m 0,60 h 0,00 h 376 W/m 16,2 km/h (3 Bft) 98,57 %
22.08.2021 17:00 22,8 C 26,3 C 20,2 C 72 % 1015,5 hPa 0,0 l/m 0,87 h 0,00 h 424 W/m 13,1 km/h (3 Bft) 96,94 %
22.08.2021 18:00 21,5 C 21,2 C 18,7 C 75 % 1015,9 hPa 0,0 l/m 0,30 h 0,03 h 131 W/m 13,7 km/h (3 Bft) 97,49 %
22.08.2021 19:00 20,2 C 19,4 C 17,5 C 81 % 1016,4 hPa 0,0 l/m 0,10 h 0,00 h 42 W/m 12,4 km/h (3 Bft) 93,80 %
22.08.2021 20:00 19,1 C 18,3 C 16,7 C 85 % 1016,9 hPa 0,0 l/m 0,00 h 0,00 h 13 W/m 9,9 km/h (2 Bft) 94,67 %
22.08.2021 21:00 18,6 C 17,8 C 16,1 C 87 % 1017,8 hPa 0,0 l/m 0,00 h 0,00 h 0 W/m 6,5 km/h (2 Bft) 97,90 %
22.08.2021 22:00 18,0 C 16,9 C 15,7 C 89 % 1018,1 hPa 0,0 l/m 0,00 h 0,00 h 0 W/m 4,7 km/h (1 Bft) 98,65 %
22.08.2021 23:00 17,4 C 16,5 C 15,1 C 92 % 1018,3 hPa 0,0 l/m 0,00 h 0,00 h 0 W/m 4,5 km/h (1 Bft) 96,25 %
Min-Datum _ 17.08.21 17.08.21 17.08.21 21.08.21 16.08.21 - - - - 17.08.21 19.08.21
_ Min-Zeit 05:24 04:56 05:16 16:02 09:04 - - - - 04:58 00:02
Minimum _ 11,3 C 10,6 C 10,0 C 56 % 1010,1 hPa - - - - 0,0 km/h (0 Bft) 11,76 %
Max-Datum _ 21.08.21 21.08.21 21.08.21 18.08.21 17.08.21 16.08.21 21.08.21 16.08.21 22.08.21 17.08.21 16.08.21
_ Max-Zeit 15:50 14:08 12:00 02:04 10:12 12:12 09:10 12:08 14:04 19:14 00:00
Maximum _ 26,9 C 30,0 C 23,9 C 98 % 1018,9 hPa 2,6 l/m 0,08 h 0,07 h 1046 W/m 41,8 km/h
SO (6 Bft)
100,00 %
Durchschnitt _ 17,6 C 17,3 C 15,7 C 87 % 1015,8 hPa #11,2 l/m #22:11 h #9:38 h 193 W/m 9,3 km/h (2 Bft) 97,08 %
© 2021 W. Hausmann